createdAt,value
2022-08-06T00:00:02.941Z,19.26
2022-08-06T00:02:29.290Z,19.23
2022-08-06T00:04:59.874Z,19.21
2022-08-06T00:07:28.620Z,19.04
2022-08-06T00:10:02.101Z,18.88
2022-08-06T00:12:35.283Z,18.98
2022-08-06T00:15:13.177Z,19.00
2022-08-06T00:17:50.946Z,19.05
2022-08-06T00:20:25.553Z,19.14
2022-08-06T00:22:58.747Z,19.15
2022-08-06T00:25:25.462Z,19.07
2022-08-06T00:27:55.563Z,19.07
2022-08-06T00:30:22.747Z,19.11
2022-08-06T00:32:52.548Z,19.07
2022-08-06T00:35:23.683Z,18.97
2022-08-06T00:37:58.345Z,19.04
2022-08-06T00:40:31.106Z,19.02
2022-08-06T00:43:00.777Z,18.85
2022-08-06T00:45:32.991Z,18.67
2022-08-06T00:48:06.766Z,18.49
2022-08-06T00:50:35.657Z,18.37
2022-08-06T00:53:05.305Z,18.39
2022-08-06T00:55:37.639Z,18.53
2022-08-06T00:58:23.883Z,18.50
2022-08-06T01:00:53.694Z,18.32
2022-08-06T01:03:27.779Z,18.40
2022-08-06T01:06:54.253Z,18.33
2022-08-06T01:08:54.158Z,18.23
2022-08-06T01:11:21.280Z,18.27
2022-08-06T01:14:03.850Z,18.23
2022-08-06T01:16:39.183Z,18.26
2022-08-06T01:21:20.339Z,18.03
2022-08-06T01:22:30.910Z,18.13
2022-08-06T01:25:46.179Z,18.28
2022-08-06T01:28:38.864Z,18.21
2022-08-06T01:31:11.860Z,18.21
2022-08-06T01:33:46.440Z,18.00
2022-08-06T01:36:20.121Z,17.86
2022-08-06T01:38:59.879Z,17.77
2022-08-06T01:41:54.649Z,17.78
2022-08-06T01:44:28.648Z,17.59
2022-08-06T01:46:59.508Z,17.64
2022-08-06T01:50:01.788Z,17.74
2022-08-06T01:52:29.711Z,17.79
2022-08-06T01:54:59.973Z,17.85
2022-08-06T01:57:33.033Z,17.83
2022-08-06T02:00:20.280Z,17.86
2022-08-06T02:02:58.744Z,17.82
2022-08-06T02:05:31.801Z,17.71
2022-08-06T02:08:38.131Z,17.75
2022-08-06T02:10:51.650Z,17.61
2022-08-06T02:13:22.075Z,17.41
2022-08-06T02:15:58.714Z,17.41
2022-08-06T02:18:35.242Z,17.45
2022-08-06T02:21:19.084Z,17.46
2022-08-06T02:23:56.394Z,17.53
2022-08-06T02:26:26.195Z,17.53
2022-08-06T02:29:03.896Z,17.39
2022-08-06T02:31:47.476Z,17.30
2022-08-06T02:34:17.589Z,17.26
2022-08-06T02:37:06.550Z,17.20
2022-08-06T02:39:41.059Z,17.21
2022-08-06T02:42:32.202Z,17.18
2022-08-06T02:45:01.219Z,16.94
2022-08-06T02:47:56.204Z,16.94
2022-08-06T02:50:38.286Z,16.85
2022-08-06T02:53:24.534Z,16.95
2022-08-06T02:56:00.628Z,17.09
2022-08-06T02:58:39.849Z,17.05
2022-08-06T03:01:24.437Z,16.97
2022-08-06T03:03:59.722Z,17.04
2022-08-06T03:06:30.623Z,17.08
2022-08-06T03:08:58.964Z,17.05
2022-08-06T03:11:31.738Z,17.07
2022-08-06T03:14:01.374Z,17.03
2022-08-06T03:16:32.036Z,16.92
2022-08-06T03:19:54.046Z,16.96
2022-08-06T03:21:57.096Z,17.03
2022-08-06T03:24:26.478Z,16.81
2022-08-06T03:26:57.230Z,16.75
2022-08-06T03:29:26.174Z,16.73
2022-08-06T03:31:58.494Z,16.83
2022-08-06T03:34:27.878Z,16.77
2022-08-06T03:36:56.843Z,16.90
2022-08-06T03:39:25.422Z,16.94
2022-08-06T03:42:08.514Z,16.94
2022-08-06T03:44:35.513Z,16.69
2022-08-06T03:47:08.368Z,16.73
2022-08-06T03:49:41.685Z,16.89
2022-08-06T03:52:14.612Z,16.84
2022-08-06T03:54:47.919Z,16.66
2022-08-06T03:57:22.087Z,16.67
2022-08-06T04:00:02.055Z,16.68
2022-08-06T04:02:36.891Z,16.68
2022-08-06T04:05:20.844Z,16.60
2022-08-06T04:07:55.075Z,16.63
2022-08-06T04:10:34.284Z,16.55
2022-08-06T04:13:07.905Z,16.50
2022-08-06T04:15:53.261Z,16.51
2022-08-06T04:18:30.107Z,16.38
2022-08-06T04:21:21.188Z,16.23
2022-08-06T04:23:49.847Z,16.15
2022-08-06T04:26:20.513Z,16.16
2022-08-06T04:28:53.121Z,16.30
2022-08-06T04:32:12.730Z,16.21
2022-08-06T04:34:20.012Z,16.24
2022-08-06T04:36:53.675Z,16.32
2022-08-06T04:39:24.901Z,16.44
2022-08-06T04:42:05.887Z,16.40
2022-08-06T04:44:32.590Z,16.40
2022-08-06T04:47:00.073Z,16.40
2022-08-06T04:49:58.275Z,16.41
2022-08-06T04:52:45.992Z,16.40
2022-08-06T04:55:25.019Z,16.23
2022-08-06T04:58:08.027Z,16.20
2022-08-06T05:03:06.635Z,16.31
2022-08-06T05:05:40.177Z,16.38
2022-08-06T05:08:10.455Z,16.49
2022-08-06T05:10:52.187Z,16.68
2022-08-06T05:13:35.620Z,16.86
2022-08-06T05:16:09.708Z,16.92
2022-08-06T05:19:20.054Z,16.97
2022-08-06T05:22:05.474Z,17.09
2022-08-06T05:24:19.467Z,17.31
2022-08-06T05:26:47.324Z,17.27
2022-08-06T05:29:19.554Z,17.32
2022-08-06T05:31:49.915Z,17.54
2022-08-06T05:34:16.897Z,17.42
2022-08-06T05:36:46.389Z,17.43
2022-08-06T05:39:56.246Z,17.39
2022-08-06T05:42:01.023Z,17.47
2022-08-06T05:44:29.732Z,17.82
2022-08-06T05:47:03.528Z,17.82
2022-08-06T05:49:58.080Z,17.50
2022-08-06T05:52:30.124Z,17.42
2022-08-06T05:55:05.028Z,17.50
2022-08-06T05:57:42.549Z,17.51
2022-08-06T06:00:31.965Z,17.12
2022-08-06T06:03:08.992Z,17.25
2022-08-06T06:06:04.088Z,17.04
2022-08-06T06:08:38.665Z,17.18
2022-08-06T06:11:23.426Z,17.26
2022-08-06T06:14:36.291Z,17.20
2022-08-06T06:17:28.040Z,17.10
2022-08-06T06:21:04.013Z,17.10
2022-08-06T06:23:24.998Z,17.61
2022-08-06T06:26:32.467Z,18.66
2022-08-06T06:29:17.337Z,19.94
2022-08-06T06:32:36.188Z,20.40
2022-08-06T06:35:18.437Z,20.91
2022-08-06T06:38:19.374Z,20.69
2022-08-06T06:41:03.201Z,20.77
2022-08-06T06:43:49.427Z,21.11
2022-08-06T06:46:38.604Z,22.18
2022-08-06T06:49:59.786Z,21.73
2022-08-06T06:52:30.193Z,23.10
2022-08-06T06:55:19.224Z,22.26
2022-08-06T06:57:59.713Z,22.26
2022-08-06T07:00:44.560Z,22.25
2022-08-06T07:03:15.149Z,21.92
2022-08-06T07:06:04.562Z,21.61
2022-08-06T07:08:42.071Z,22.41
2022-08-06T07:11:10.152Z,22.62
2022-08-06T07:13:47.779Z,23.33
2022-08-06T07:16:22.607Z,22.48
2022-08-06T07:19:05.676Z,23.54
2022-08-06T07:21:37.881Z,23.82
2022-08-06T07:24:39.999Z,23.96
2022-08-06T07:26:54.723Z,23.68
2022-08-06T07:29:48.548Z,22.86
2022-08-06T07:32:30.626Z,23.33
2022-08-06T07:35:01.179Z,23.19
2022-08-06T07:37:39.281Z,23.23
2022-08-06T07:40:10.165Z,22.67
2022-08-06T07:42:39.294Z,23.43
2022-08-06T07:45:11.209Z,23.51
2022-08-06T07:47:54.759Z,24.28
2022-08-06T07:50:25.022Z,24.79
2022-08-06T07:52:56.692Z,24.79
2022-08-06T07:55:37.057Z,24.36
2022-08-06T07:58:08.327Z,24.46
2022-08-06T08:00:38.256Z,23.84
2022-08-06T08:03:56.208Z,23.84
2022-08-06T08:06:23.865Z,24.49
2022-08-06T08:08:57.157Z,23.90
2022-08-06T08:11:38.482Z,24.64
2022-08-06T08:14:15.350Z,24.72
2022-08-06T08:16:44.087Z,24.81
2022-08-06T08:19:35.302Z,24.82
2022-08-06T08:22:17.525Z,25.35
2022-08-06T08:24:54.223Z,25.26
2022-08-06T08:27:23.611Z,25.99
2022-08-06T08:29:57.296Z,26.64
2022-08-06T08:32:26.497Z,26.09
2022-08-06T08:34:54.353Z,26.83
2022-08-06T08:37:21.693Z,27.42
2022-08-06T08:39:50.384Z,26.52
2022-08-06T08:42:32.237Z,25.28
2022-08-06T08:45:01.066Z,24.95
2022-08-06T08:47:47.165Z,26.37
2022-08-06T08:50:18.715Z,27.19
2022-08-06T08:52:48.505Z,27.79
2022-08-06T08:57:08.779Z,25.83
2022-08-06T08:58:40.082Z,26.52
2022-08-06T09:00:54.659Z,26.10
2022-08-06T09:03:21.994Z,26.56
2022-08-06T09:05:50.176Z,25.11
2022-08-06T09:09:01.437Z,25.89
2022-08-06T09:11:20.689Z,26.57
2022-08-06T09:13:57.635Z,26.09
2022-08-06T09:16:32.042Z,26.30
2022-08-06T09:19:00.173Z,26.02
2022-08-06T09:21:28.558Z,27.17
2022-08-06T09:23:58.295Z,27.54
2022-08-06T09:26:52.749Z,28.07
2022-08-06T09:29:24.050Z,26.33
2022-08-06T09:31:58.341Z,26.59
2022-08-06T09:34:50.584Z,28.08
2022-08-06T09:37:30.269Z,25.93
2022-08-06T09:40:17.071Z,28.11
2022-08-06T09:42:48.098Z,28.93
2022-08-06T09:45:18.093Z,28.69
2022-08-06T09:47:57.656Z,27.10
2022-08-06T09:50:43.458Z,26.37
2022-08-06T09:53:14.716Z,26.17
2022-08-06T09:55:42.273Z,26.10
2022-08-06T09:58:09.990Z,25.42
2022-08-06T10:00:38.486Z,27.86
2022-08-06T10:04:03.840Z,27.33
2022-08-06T10:06:06.717Z,26.46
2022-08-06T10:08:38.298Z,27.00
2022-08-06T10:11:07.245Z,28.02
2022-08-06T10:13:44.635Z,29.74
2022-08-06T10:16:17.376Z,29.58
2022-08-06T10:18:55.663Z,27.85
2022-08-06T10:21:41.313Z,27.56
2022-08-06T10:24:11.254Z,28.73
2022-08-06T10:26:38.754Z,26.43
2022-08-06T10:29:14.379Z,25.99
2022-08-06T10:31:42.618Z,25.24
2022-08-06T10:34:21.467Z,24.55
2022-08-06T10:37:07.851Z,24.17
2022-08-06T10:40:07.677Z,23.93
2022-08-06T10:42:37.101Z,24.67
2022-08-06T10:45:13.175Z,24.16
2022-08-06T10:48:57.713Z,24.38
2022-08-06T10:50:44.670Z,24.41
2022-08-06T10:54:01.544Z,24.39
2022-08-06T10:56:10.428Z,23.89
2022-08-06T10:58:39.591Z,24.47
2022-08-06T11:01:20.155Z,24.44
2022-08-06T11:04:03.497Z,24.22
2022-08-06T11:06:42.826Z,24.25
2022-08-06T11:10:03.632Z,23.55
2022-08-06T11:13:00.209Z,23.98
2022-08-06T11:15:29.174Z,24.15
2022-08-06T11:18:12.310Z,23.91
2022-08-06T11:20:48.109Z,23.69
2022-08-06T11:23:26.219Z,24.63
2022-08-06T11:26:03.331Z,24.83
2022-08-06T11:28:34.946Z,24.61
2022-08-06T11:33:38.864Z,24.50
2022-08-06T11:36:10.861Z,25.28
2022-08-06T11:38:50.142Z,25.35
2022-08-06T11:41:55.338Z,24.46
2022-08-06T11:44:11.945Z,24.92
2022-08-06T11:46:48.543Z,24.73
2022-08-06T11:49:43.057Z,24.94
2022-08-06T11:52:31.368Z,24.73
2022-08-06T11:55:08.467Z,24.85
2022-08-06T11:57:41.772Z,24.53
2022-08-06T12:00:19.972Z,24.79
2022-08-06T12:02:53.310Z,25.32
2022-08-06T12:05:20.080Z,25.09
2022-08-06T12:08:14.748Z,24.75
2022-08-06T12:11:34.347Z,24.21
2022-08-06T12:14:34.023Z,23.99
2022-08-06T12:16:53.480Z,24.84
2022-08-06T12:19:24.168Z,24.89
2022-08-06T12:21:57.920Z,25.10
2022-08-06T12:24:45.375Z,25.30
2022-08-06T12:27:15.264Z,25.34
2022-08-06T12:29:42.848Z,24.95
2022-08-06T12:32:26.185Z,24.29
2022-08-06T12:34:59.073Z,24.83
2022-08-06T12:37:51.390Z,24.58
2022-08-06T12:40:34.708Z,24.84
2022-08-06T12:43:14.466Z,25.20
2022-08-06T12:46:06.251Z,25.24
2022-08-06T12:48:30.279Z,24.85
2022-08-06T12:51:11.497Z,25.00
2022-08-06T12:53:56.381Z,25.11
2022-08-06T12:56:30.847Z,25.64
2022-08-06T12:59:02.795Z,24.95
2022-08-06T13:02:08.979Z,24.80
2022-08-06T13:04:21.599Z,24.53
2022-08-06T13:06:49.650Z,24.94
2022-08-06T13:09:31.505Z,25.30
2022-08-06T13:12:19.980Z,25.58
2022-08-06T13:15:09.996Z,25.66
2022-08-06T13:18:33.799Z,25.00
2022-08-06T13:21:26.965Z,24.80
2022-08-06T13:24:12.151Z,25.13
2022-08-06T13:26:51.300Z,25.39
2022-08-06T13:30:32.823Z,25.02
2022-08-06T13:32:27.676Z,24.73
2022-08-06T13:35:17.264Z,25.07
2022-08-06T13:37:56.051Z,25.26
2022-08-06T13:40:47.015Z,25.25
2022-08-06T13:43:40.059Z,25.11
2022-08-06T13:46:16.659Z,24.91
2022-08-06T13:48:49.625Z,24.83
2022-08-06T13:51:22.537Z,24.73
2022-08-06T13:53:57.021Z,24.97
2022-08-06T13:56:28.629Z,24.89
2022-08-06T13:58:58.010Z,25.35
2022-08-06T14:01:34.893Z,25.34
2022-08-06T14:04:11.842Z,25.69
2022-08-06T14:06:45.898Z,26.01
2022-08-06T14:09:19.552Z,25.49
2022-08-06T14:12:14.410Z,25.74
2022-08-06T14:14:41.979Z,25.53
2022-08-06T14:17:19.562Z,25.68
2022-08-06T14:20:14.184Z,25.83
2022-08-06T14:22:40.564Z,25.65
2022-08-06T14:25:10.297Z,25.30
2022-08-06T14:27:45.166Z,25.32
2022-08-06T14:30:27.125Z,25.16
2022-08-06T14:33:02.972Z,25.29
2022-08-06T14:35:45.916Z,25.53
2022-08-06T14:38:20.806Z,25.64
2022-08-06T14:41:10.089Z,25.55
2022-08-06T14:43:57.720Z,25.39
2022-08-06T14:46:30.807Z,25.40
2022-08-06T14:49:09.230Z,25.54
2022-08-06T14:52:20.403Z,25.99
2022-08-06T14:54:31.768Z,25.54
2022-08-06T14:57:00.983Z,25.55
2022-08-06T14:59:32.125Z,25.67
2022-08-06T15:02:12.686Z,26.10
2022-08-06T15:04:45.720Z,26.09
2022-08-06T15:07:25.003Z,26.07
2022-08-06T15:10:03.844Z,25.81
2022-08-06T15:12:40.556Z,25.44
2022-08-06T15:15:21.123Z,25.64
2022-08-06T15:18:05.361Z,25.61
2022-08-06T15:20:41.109Z,25.37
2022-08-06T15:23:08.190Z,25.66
2022-08-06T15:25:44.978Z,25.73
2022-08-06T15:28:27.549Z,25.42
2022-08-06T15:30:59.893Z,25.49
2022-08-06T15:33:35.336Z,25.32
2022-08-06T15:36:03.329Z,25.50
2022-08-06T15:38:32.434Z,25.17
2022-08-06T15:41:00.855Z,25.25
2022-08-06T15:43:37.595Z,25.42
2022-08-06T15:46:12.410Z,25.21
2022-08-06T15:48:47.126Z,25.28
2022-08-06T15:51:29.178Z,25.73
2022-08-06T15:53:57.811Z,26.01
2022-08-06T15:56:34.022Z,26.27
2022-08-06T15:59:12.386Z,25.95
2022-08-06T16:01:52.596Z,25.73
2022-08-06T16:04:32.293Z,25.35
2022-08-06T16:07:08.163Z,25.20
2022-08-06T16:10:00.409Z,25.39
2022-08-06T16:12:25.831Z,25.45
2022-08-06T16:14:57.683Z,25.62
2022-08-06T16:17:33.489Z,25.62
2022-08-06T16:20:20.827Z,25.23
2022-08-06T16:22:52.262Z,25.26
2022-08-06T16:25:20.345Z,25.28
2022-08-06T16:27:48.135Z,25.34
2022-08-06T16:30:16.193Z,25.33
2022-08-06T16:32:44.859Z,25.20
2022-08-06T16:35:15.006Z,25.31
2022-08-06T16:37:42.438Z,25.05
2022-08-06T16:40:09.706Z,25.11
2022-08-06T16:42:36.921Z,25.86
2022-08-06T16:45:11.370Z,25.97
2022-08-06T16:48:18.274Z,26.31
2022-08-06T16:50:35.565Z,25.81
2022-08-06T16:54:07.929Z,24.85
2022-08-06T16:55:54.470Z,24.79
2022-08-06T17:02:19.722Z,24.66
2022-08-06T17:04:00.525Z,24.73
2022-08-06T17:06:34.971Z,24.88
2022-08-06T17:12:17.787Z,25.41
2022-08-06T17:14:52.406Z,25.19
2022-08-06T17:20:01.203Z,24.73
2022-08-06T17:22:30.565Z,24.62
2022-08-06T17:24:58.164Z,24.51
2022-08-06T17:30:16.174Z,24.34
2022-08-06T17:32:46.457Z,24.33
2022-08-06T17:35:15.760Z,24.28
2022-08-06T17:37:45.438Z,24.28
2022-08-06T17:40:19.169Z,24.16
2022-08-06T17:43:00.229Z,24.00
2022-08-06T17:45:31.614Z,23.89
2022-08-06T17:47:59.768Z,23.91
2022-08-06T17:50:42.068Z,23.94
2022-08-06T17:53:19.028Z,23.83
2022-08-06T17:55:59.745Z,23.73
2022-08-06T17:58:38.027Z,23.84
2022-08-06T18:01:43.898Z,23.76
2022-08-06T18:04:21.842Z,23.68
2022-08-06T18:06:54.777Z,23.64
2022-08-06T18:10:11.176Z,23.50
2022-08-06T18:12:12.444Z,23.46
2022-08-06T18:14:39.578Z,23.45
2022-08-06T18:17:17.246Z,23.43
2022-08-06T18:19:47.123Z,23.38
2022-08-06T18:22:21.622Z,23.34
2022-08-06T18:24:53.970Z,23.35
2022-08-06T18:27:53.378Z,23.35
2022-08-06T18:30:36.643Z,23.32
2022-08-06T18:33:00.341Z,23.27
2022-08-06T18:35:28.414Z,23.15
2022-08-06T18:38:04.075Z,23.08
2022-08-06T18:40:38.653Z,23.01
2022-08-06T18:43:08.830Z,22.95
2022-08-06T18:45:58.542Z,22.81
2022-08-06T18:48:25.119Z,22.68
2022-08-06T18:51:02.337Z,22.56
2022-08-06T18:54:01.893Z,22.42
2022-08-06T18:56:20.228Z,22.29
2022-08-06T18:58:58.685Z,22.25
2022-08-06T19:01:29.448Z,22.25
2022-08-06T19:04:01.906Z,22.07
2022-08-06T19:06:32.399Z,22.06
2022-08-06T19:09:00.975Z,22.01
2022-08-06T19:11:39.676Z,21.94
2022-08-06T19:14:18.741Z,21.83
2022-08-06T19:16:49.902Z,21.78
2022-08-06T19:19:46.253Z,21.71
2022-08-06T19:22:07.177Z,21.75
2022-08-06T19:24:36.965Z,21.67
2022-08-06T19:28:31.491Z,21.55
2022-08-06T19:30:41.469Z,21.50
2022-08-06T19:33:01.621Z,21.40
2022-08-06T19:36:06.804Z,21.34
2022-08-06T19:38:30.585Z,21.27
2022-08-06T19:40:57.489Z,21.26
2022-08-06T19:44:27.239Z,21.14
2022-08-06T19:46:31.335Z,21.24
2022-08-06T19:49:03.393Z,21.21
2022-08-06T19:52:02.605Z,21.16
2022-08-06T19:54:26.072Z,21.02
2022-08-06T19:57:15.973Z,20.86
2022-08-06T20:00:54.838Z,20.76
2022-08-06T20:02:53.076Z,20.78
2022-08-06T20:06:30.010Z,20.66
2022-08-06T20:09:59.211Z,20.68
2022-08-06T20:12:16.869Z,20.56
2022-08-06T20:14:44.039Z,20.52
2022-08-06T20:20:07.491Z,20.52
2022-08-06T20:22:42.394Z,20.52
2022-08-06T20:26:08.134Z,20.34
2022-08-06T20:29:07.236Z,20.41
2022-08-06T20:31:22.122Z,20.15
2022-08-06T20:33:58.705Z,20.15
2022-08-06T20:36:53.150Z,20.13
2022-08-06T20:39:20.615Z,20.04
2022-08-06T20:42:02.125Z,20.01
2022-08-06T20:44:30.579Z,19.87
2022-08-06T20:47:48.645Z,19.75
2022-08-06T20:50:01.759Z,19.69
2022-08-06T20:52:31.125Z,19.64
2022-08-06T20:55:00.965Z,19.66
2022-08-06T20:57:37.558Z,19.60
2022-08-06T21:00:19.052Z,19.54
2022-08-06T21:02:54.430Z,19.52
2022-08-06T21:05:50.718Z,19.42
2022-08-06T21:08:26.406Z,19.43
2022-08-06T21:10:55.424Z,19.41
2022-08-06T21:13:37.332Z,19.35
2022-08-06T21:16:13.870Z,19.36
2022-08-06T21:18:52.574Z,19.25
2022-08-06T21:21:20.082Z,19.22
2022-08-06T21:23:57.166Z,19.25
2022-08-06T21:26:34.705Z,19.15
2022-08-06T21:29:41.813Z,19.04
2022-08-06T21:31:57.370Z,19.10
2022-08-06T21:34:25.467Z,19.06
2022-08-06T21:36:52.212Z,18.98
2022-08-06T21:39:18.915Z,18.98
2022-08-06T21:41:59.165Z,18.90
2022-08-06T21:44:30.332Z,18.82
2022-08-06T21:47:00.525Z,18.84
2022-08-06T21:50:00.616Z,18.82
2022-08-06T21:52:28.332Z,18.83
2022-08-06T21:55:11.269Z,18.79
2022-08-06T21:57:45.717Z,18.78
2022-08-06T22:00:39.600Z,18.76
2022-08-06T22:03:13.827Z,18.69
2022-08-06T22:06:22.386Z,18.71
2022-08-06T22:08:53.919Z,18.74
2022-08-06T22:12:39.228Z,18.75
2022-08-06T22:14:12.111Z,18.68
2022-08-06T22:16:42.846Z,18.60
2022-08-06T22:19:13.428Z,18.56
2022-08-06T22:21:50.135Z,18.55
2022-08-06T22:24:19.371Z,18.56
2022-08-06T22:26:45.942Z,18.47
2022-08-06T22:29:17.495Z,18.47
2022-08-06T22:31:57.146Z,18.51
2022-08-06T22:34:36.131Z,18.57
2022-08-06T22:37:04.129Z,18.52
2022-08-06T22:39:34.651Z,18.48
2022-08-06T22:42:07.846Z,18.40
2022-08-06T22:44:51.841Z,18.31
2022-08-06T22:47:22.675Z,18.31
2022-08-06T22:50:01.658Z,18.22
2022-08-06T22:52:57.911Z,18.22
2022-08-06T22:55:18.817Z,18.18
2022-08-06T22:58:04.300Z,18.15
2022-08-06T23:00:37.201Z,18.21
2022-08-06T23:03:11.936Z,18.24
2022-08-06T23:05:44.271Z,18.29
2022-08-06T23:08:13.745Z,18.31
2022-08-06T23:10:48.245Z,18.28
2022-08-06T23:13:25.326Z,18.26
2022-08-06T23:15:54.204Z,18.11
2022-08-06T23:18:22.465Z,18.17
2022-08-06T23:21:15.217Z,18.21
2022-08-06T23:23:47.822Z,18.13
2022-08-06T23:26:16.267Z,18.08
2022-08-06T23:28:43.231Z,18.07
2022-08-06T23:31:12.972Z,18.04
2022-08-06T23:33:54.985Z,18.03
2022-08-06T23:36:27.115Z,18.00
2022-08-06T23:38:57.442Z,18.06
2022-08-06T23:42:00.601Z,18.01
2022-08-06T23:44:18.536Z,17.92
2022-08-06T23:46:50.872Z,18.03
2022-08-06T23:49:19.009Z,17.92
2022-08-06T23:52:04.366Z,17.83
2022-08-06T23:54:36.974Z,17.56
2022-08-06T23:57:06.203Z,17.51
2022-08-06T23:59:44.038Z,17.48
